sensor_id;sensor_type;location;lat;lon;timestamp;P1;durP1;ratioP1;P2;durP2;ratioP2
705;SDS011;21234;48.690;9.016;2022-07-23T00:00:05;5.83;;;5.03;;
705;SDS011;21234;48.690;9.016;2022-07-23T00:02:33;5.37;;;4.97;;
705;SDS011;21234;48.690;9.016;2022-07-23T00:05:01;4.97;;;4.57;;
705;SDS011;21234;48.690;9.016;2022-07-23T00:07:28;7.03;;;4.70;;
705;SDS011;21234;48.690;9.016;2022-07-23T00:09:55;5.33;;;4.83;;
705;SDS011;21234;48.690;9.016;2022-07-23T00:12:22;5.30;;;4.80;;
705;SDS011;21234;48.690;9.016;2022-07-23T00:14:48;5.00;;;4.50;;
705;SDS011;21234;48.690;9.016;2022-07-23T00:17:15;6.10;;;4.10;;
705;SDS011;21234;48.690;9.016;2022-07-23T00:19:42;4.90;;;4.50;;
705;SDS011;21234;48.690;9.016;2022-07-23T00:22:10;4.93;;;4.30;;
705;SDS011;21234;48.690;9.016;2022-07-23T00:24:37;6.70;;;4.90;;
705;SDS011;21234;48.690;9.016;2022-07-23T00:27:04;7.57;;;5.30;;
705;SDS011;21234;48.690;9.016;2022-07-23T00:29:30;5.07;;;4.67;;
705;SDS011;21234;48.690;9.016;2022-07-23T00:31:57;6.50;;;6.00;;
705;SDS011;21234;48.690;9.016;2022-07-23T00:34:24;4.33;;;4.00;;
705;SDS011;21234;48.690;9.016;2022-07-23T00:36:51;5.57;;;4.63;;
705;SDS011;21234;48.690;9.016;2022-07-23T00:39:20;4.70;;;4.30;;
705;SDS011;21234;48.690;9.016;2022-07-23T00:41:47;5.57;;;4.73;;
705;SDS011;21234;48.690;9.016;2022-07-23T00:44:15;4.47;;;4.17;;
705;SDS011;21234;48.690;9.016;2022-07-23T00:46:45;5.40;;;4.90;;
705;SDS011;21234;48.690;9.016;2022-07-23T00:49:12;5.93;;;5.10;;
705;SDS011;21234;48.690;9.016;2022-07-23T00:51:39;6.50;;;5.10;;
705;SDS011;21234;48.690;9.016;2022-07-23T00:54:06;5.10;;;4.60;;
705;SDS011;21234;48.690;9.016;2022-07-23T00:56:34;5.23;;;4.83;;
705;SDS011;21234;48.690;9.016;2022-07-23T00:59:01;5.60;;;5.10;;
705;SDS011;21234;48.690;9.016;2022-07-23T01:01:28;4.57;;;4.17;;
705;SDS011;21234;48.690;9.016;2022-07-23T01:03:54;5.97;;;4.53;;
705;SDS011;21234;48.690;9.016;2022-07-23T01:06:21;4.73;;;4.33;;
705;SDS011;21234;48.690;9.016;2022-07-23T01:08:48;5.80;;;4.70;;
705;SDS011;21234;48.690;9.016;2022-07-23T01:11:15;5.40;;;4.90;;
705;SDS011;21234;48.690;9.016;2022-07-23T01:13:44;5.13;;;4.63;;
705;SDS011;21234;48.690;9.016;2022-07-23T01:16:11;5.20;;;4.70;;
705;SDS011;21234;48.690;9.016;2022-07-23T01:18:38;6.63;;;5.10;;
705;SDS011;21234;48.690;9.016;2022-07-23T01:21:05;4.53;;;4.13;;
705;SDS011;21234;48.690;9.016;2022-07-23T01:23:33;4.73;;;4.33;;
705;SDS011;21234;48.690;9.016;2022-07-23T01:26:00;5.07;;;4.50;;
705;SDS011;21234;48.690;9.016;2022-07-23T01:28:27;5.23;;;4.73;;
705;SDS011;21234;48.690;9.016;2022-07-23T01:30:54;4.27;;;3.90;;
705;SDS011;21234;48.690;9.016;2022-07-23T01:33:21;4.90;;;4.50;;
705;SDS011;21234;48.690;9.016;2022-07-23T01:35:47;4.20;;;3.90;;
705;SDS011;21234;48.690;9.016;2022-07-23T01:38:14;5.17;;;4.67;;
705;SDS011;21234;48.690;9.016;2022-07-23T01:40:42;4.70;;;3.80;;
705;SDS011;21234;48.690;9.016;2022-07-23T01:43:09;4.20;;;3.80;;
705;SDS011;21234;48.690;9.016;2022-07-23T01:45:36;4.50;;;4.10;;
705;SDS011;21234;48.690;9.016;2022-07-23T01:48:02;5.80;;;4.90;;
705;SDS011;21234;48.690;9.016;2022-07-23T01:50:30;4.90;;;4.20;;
705;SDS011;21234;48.690;9.016;2022-07-23T01:52:56;5.37;;;4.90;;
705;SDS011;21234;48.690;9.016;2022-07-23T01:55:23;5.17;;;4.77;;
705;SDS011;21234;48.690;9.016;2022-07-23T01:57:51;4.93;;;4.57;;
705;SDS011;21234;48.690;9.016;2022-07-23T02:00:18;5.60;;;4.50;;
705;SDS011;21234;48.690;9.016;2022-07-23T02:02:45;5.30;;;4.80;;
705;SDS011;21234;48.690;9.016;2022-07-23T02:05:12;5.87;;;4.40;;
705;SDS011;21234;48.690;9.016;2022-07-23T02:07:38;4.50;;;4.10;;
705;SDS011;21234;48.690;9.016;2022-07-23T02:10:05;4.67;;;4.20;;
705;SDS011;21234;48.690;9.016;2022-07-23T02:12:33;5.90;;;5.13;;
705;SDS011;21234;48.690;9.016;2022-07-23T02:15:01;5.30;;;4.80;;
705;SDS011;21234;48.690;9.016;2022-07-23T02:17:28;4.87;;;4.40;;
705;SDS011;21234;48.690;9.016;2022-07-23T02:19:55;5.00;;;4.47;;
705;SDS011;21234;48.690;9.016;2022-07-23T02:22:21;4.40;;;4.10;;
705;SDS011;21234;48.690;9.016;2022-07-23T02:24:48;5.77;;;5.27;;
705;SDS011;21234;48.690;9.016;2022-07-23T02:27:15;5.57;;;4.97;;
705;SDS011;21234;48.690;9.016;2022-07-23T02:29:42;7.80;;;5.23;;
705;SDS011;21234;48.690;9.016;2022-07-23T02:32:10;5.50;;;5.10;;
705;SDS011;21234;48.690;9.016;2022-07-23T02:34:37;5.10;;;4.70;;
705;SDS011;21234;48.690;9.016;2022-07-23T02:37:04;5.37;;;4.70;;
705;SDS011;21234;48.690;9.016;2022-07-23T02:39:33;4.73;;;4.33;;
705;SDS011;21234;48.690;9.016;2022-07-23T02:42:00;4.93;;;4.53;;
705;SDS011;21234;48.690;9.016;2022-07-23T02:44:27;5.07;;;4.67;;
705;SDS011;21234;48.690;9.016;2022-07-23T02:46:53;4.80;;;4.30;;
705;SDS011;21234;48.690;9.016;2022-07-23T02:49:21;4.80;;;4.40;;
705;SDS011;21234;48.690;9.016;2022-07-23T02:51:48;5.63;;;5.03;;
705;SDS011;21234;48.690;9.016;2022-07-23T02:54:15;5.47;;;4.77;;
705;SDS011;21234;48.690;9.016;2022-07-23T02:56:42;4.87;;;4.47;;
705;SDS011;21234;48.690;9.016;2022-07-23T02:59:08;5.60;;;4.80;;
705;SDS011;21234;48.690;9.016;2022-07-23T03:01:35;5.37;;;4.97;;
705;SDS011;21234;48.690;9.016;2022-07-23T03:04:02;5.00;;;4.60;;
705;SDS011;21234;48.690;9.016;2022-07-23T03:06:31;5.60;;;5.10;;
705;SDS011;21234;48.690;9.016;2022-07-23T03:08:57;5.30;;;4.80;;
705;SDS011;21234;48.690;9.016;2022-07-23T03:11:24;5.67;;;4.77;;
705;SDS011;21234;48.690;9.016;2022-07-23T03:13:51;5.00;;;4.50;;
705;SDS011;21234;48.690;9.016;2022-07-23T03:16:17;6.00;;;5.30;;
705;SDS011;21234;48.690;9.016;2022-07-23T03:18:44;5.13;;;4.73;;
705;SDS011;21234;48.690;9.016;2022-07-23T03:21:11;5.30;;;4.80;;
705;SDS011;21234;48.690;9.016;2022-07-23T03:23:39;5.70;;;5.10;;
705;SDS011;21234;48.690;9.016;2022-07-23T03:26:06;5.03;;;4.40;;
705;SDS011;21234;48.690;9.016;2022-07-23T03:28:32;5.60;;;4.97;;
705;SDS011;21234;48.690;9.016;2022-07-23T03:30:59;7.60;;;5.50;;
705;SDS011;21234;48.690;9.016;2022-07-23T03:33:26;5.77;;;5.27;;
705;SDS011;21234;48.690;9.016;2022-07-23T03:35:53;4.77;;;4.37;;
705;SDS011;21234;48.690;9.016;2022-07-23T03:38:19;5.73;;;5.17;;
705;SDS011;21234;48.690;9.016;2022-07-23T03:40:47;6.37;;;5.77;;
705;SDS011;21234;48.690;9.016;2022-07-23T03:43:14;4.70;;;4.30;;
705;SDS011;21234;48.690;9.016;2022-07-23T03:45:41;5.33;;;4.93;;
705;SDS011;21234;48.690;9.016;2022-07-23T03:48:08;7.13;;;5.17;;
705;SDS011;21234;48.690;9.016;2022-07-23T03:50:34;5.67;;;5.17;;
705;SDS011;21234;48.690;9.016;2022-07-23T03:53:02;5.03;;;4.60;;
705;SDS011;21234;48.690;9.016;2022-07-23T03:55:29;5.87;;;5.27;;
705;SDS011;21234;48.690;9.016;2022-07-23T03:57:57;5.20;;;4.80;;
705;SDS011;21234;48.690;9.016;2022-07-23T04:00:24;6.00;;;5.30;;
705;SDS011;21234;48.690;9.016;2022-07-23T04:02:50;5.20;;;4.80;;
705;SDS011;21234;48.690;9.016;2022-07-23T04:05:17;6.13;;;5.40;;
705;SDS011;21234;48.690;9.016;2022-07-23T04:07:45;5.93;;;5.40;;
705;SDS011;21234;48.690;9.016;2022-07-23T04:10:11;8.17;;;5.53;;
705;SDS011;21234;48.690;9.016;2022-07-23T04:12:38;6.13;;;5.60;;
705;SDS011;21234;48.690;9.016;2022-07-23T04:15:08;6.43;;;5.80;;
705;SDS011;21234;48.690;9.016;2022-07-23T04:17:35;5.70;;;5.20;;
705;SDS011;21234;48.690;9.016;2022-07-23T04:20:02;5.87;;;5.27;;
705;SDS011;21234;48.690;9.016;2022-07-23T04:22:28;5.73;;;5.13;;
705;SDS011;21234;48.690;9.016;2022-07-23T04:24:55;6.27;;;5.13;;
705;SDS011;21234;48.690;9.016;2022-07-23T04:27:22;6.10;;;4.93;;
705;SDS011;21234;48.690;9.016;2022-07-23T04:29:49;5.83;;;5.07;;
705;SDS011;21234;48.690;9.016;2022-07-23T04:32:17;5.93;;;5.40;;
705;SDS011;21234;48.690;9.016;2022-07-23T04:34:44;5.10;;;4.60;;
705;SDS011;21234;48.690;9.016;2022-07-23T04:37:11;6.27;;;4.80;;
705;SDS011;21234;48.690;9.016;2022-07-23T04:39:37;6.87;;;6.37;;
705;SDS011;21234;48.690;9.016;2022-07-23T04:42:04;6.37;;;5.63;;
705;SDS011;21234;48.690;9.016;2022-07-23T04:44:31;5.50;;;5.00;;
705;SDS011;21234;48.690;9.016;2022-07-23T04:46:58;5.63;;;5.07;;
705;SDS011;21234;48.690;9.016;2022-07-23T04:49:26;5.10;;;4.60;;
705;SDS011;21234;48.690;9.016;2022-07-23T04:51:52;6.10;;;5.50;;
705;SDS011;21234;48.690;9.016;2022-07-23T04:54:19;6.57;;;5.97;;
705;SDS011;21234;48.690;9.016;2022-07-23T04:56:46;5.60;;;5.13;;
705;SDS011;21234;48.690;9.016;2022-07-23T04:59:13;6.00;;;5.40;;
705;SDS011;21234;48.690;9.016;2022-07-23T05:01:39;5.00;;;4.60;;
705;SDS011;21234;48.690;9.016;2022-07-23T05:04:06;6.47;;;5.80;;
705;SDS011;21234;48.690;9.016;2022-07-23T05:06:35;20.40;;;8.63;;
705;SDS011;21234;48.690;9.016;2022-07-23T05:09:01;5.37;;;4.87;;
705;SDS011;21234;48.690;9.016;2022-07-23T05:11:28;6.37;;;5.77;;
705;SDS011;21234;48.690;9.016;2022-07-23T05:13:55;5.20;;;4.70;;
705;SDS011;21234;48.690;9.016;2022-07-23T05:16:22;5.77;;;5.27;;
705;SDS011;21234;48.690;9.016;2022-07-23T05:18:48;5.90;;;5.47;;
705;SDS011;21234;48.690;9.016;2022-07-23T05:21:15;14.00;;;6.63;;
705;SDS011;21234;48.690;9.016;2022-07-23T05:23:43;5.80;;;5.20;;
705;SDS011;21234;48.690;9.016;2022-07-23T05:26:10;7.53;;;5.80;;
705;SDS011;21234;48.690;9.016;2022-07-23T05:28:37;5.83;;;5.33;;
705;SDS011;21234;48.690;9.016;2022-07-23T05:31:04;6.53;;;5.90;;
705;SDS011;21234;48.690;9.016;2022-07-23T05:33:31;6.27;;;5.30;;
705;SDS011;21234;48.690;9.016;2022-07-23T05:35:59;5.77;;;5.33;;
705;SDS011;21234;48.690;9.016;2022-07-23T05:38:27;5.83;;;5.30;;
705;SDS011;21234;48.690;9.016;2022-07-23T05:40:56;6.23;;;5.27;;
705;SDS011;21234;48.690;9.016;2022-07-23T05:43:22;6.23;;;5.73;;
705;SDS011;21234;48.690;9.016;2022-07-23T05:45:49;5.77;;;5.27;;
705;SDS011;21234;48.690;9.016;2022-07-23T05:48:16;7.13;;;5.63;;
705;SDS011;21234;48.690;9.016;2022-07-23T05:50:43;7.00;;;6.30;;
705;SDS011;21234;48.690;9.016;2022-07-23T05:53:10;7.30;;;6.70;;
705;SDS011;21234;48.690;9.016;2022-07-23T05:55:36;6.60;;;6.00;;
705;SDS011;21234;48.690;9.016;2022-07-23T05:58:05;7.00;;;6.40;;
705;SDS011;21234;48.690;9.016;2022-07-23T06:00:32;5.80;;;5.20;;
705;SDS011;21234;48.690;9.016;2022-07-23T06:02:58;7.33;;;6.30;;
705;SDS011;21234;48.690;9.016;2022-07-23T06:05:25;6.63;;;6.03;;
705;SDS011;21234;48.690;9.016;2022-07-23T06:07:52;7.33;;;6.63;;
705;SDS011;21234;48.690;9.016;2022-07-23T06:10:19;7.93;;;5.90;;
705;SDS011;21234;48.690;9.016;2022-07-23T06:12:46;7.03;;;6.33;;
705;SDS011;21234;48.690;9.016;2022-07-23T06:15:14;7.60;;;6.03;;
705;SDS011;21234;48.690;9.016;2022-07-23T06:17:41;7.60;;;6.90;;
705;SDS011;21234;48.690;9.016;2022-07-23T06:20:08;7.57;;;6.87;;
705;SDS011;21234;48.690;9.016;2022-07-23T06:22:36;8.10;;;7.40;;
705;SDS011;21234;48.690;9.016;2022-07-23T06:25:03;7.90;;;7.20;;
705;SDS011;21234;48.690;9.016;2022-07-23T06:27:30;7.73;;;6.87;;
705;SDS011;21234;48.690;9.016;2022-07-23T06:29:57;7.77;;;7.17;;
705;SDS011;21234;48.690;9.016;2022-07-23T06:32:25;8.17;;;7.50;;
705;SDS011;21234;48.690;9.016;2022-07-23T06:34:52;8.40;;;7.60;;
705;SDS011;21234;48.690;9.016;2022-07-23T06:37:19;7.30;;;6.70;;
705;SDS011;21234;48.690;9.016;2022-07-23T06:39:45;8.73;;;7.13;;
705;SDS011;21234;48.690;9.016;2022-07-23T06:42:12;9.47;;;7.67;;
705;SDS011;21234;48.690;9.016;2022-07-23T06:44:40;7.80;;;7.10;;
705;SDS011;21234;48.690;9.016;2022-07-23T06:47:07;9.20;;;7.40;;
705;SDS011;21234;48.690;9.016;2022-07-23T06:49:36;7.33;;;6.63;;
705;SDS011;21234;48.690;9.016;2022-07-23T06:52:06;7.67;;;6.87;;
705;SDS011;21234;48.690;9.016;2022-07-23T06:54:33;6.83;;;6.13;;
705;SDS011;21234;48.690;9.016;2022-07-23T06:57:00;6.63;;;6.03;;
705;SDS011;21234;48.690;9.016;2022-07-23T06:59:26;5.97;;;5.47;;
705;SDS011;21234;48.690;9.016;2022-07-23T07:01:53;6.60;;;6.07;;
705;SDS011;21234;48.690;9.016;2022-07-23T07:04:20;6.80;;;6.20;;
705;SDS011;21234;48.690;9.016;2022-07-23T07:06:48;7.10;;;6.20;;
705;SDS011;21234;48.690;9.016;2022-07-23T07:09:15;10.20;;;7.10;;
705;SDS011;21234;48.690;9.016;2022-07-23T07:11:42;6.80;;;6.20;;
705;SDS011;21234;48.690;9.016;2022-07-23T07:14:09;6.90;;;6.30;;
705;SDS011;21234;48.690;9.016;2022-07-23T07:16:35;7.00;;;6.33;;
705;SDS011;21234;48.690;9.016;2022-07-23T07:19:02;7.60;;;6.90;;
705;SDS011;21234;48.690;9.016;2022-07-23T07:21:29;6.10;;;5.60;;
705;SDS011;21234;48.690;9.016;2022-07-23T07:23:57;6.30;;;5.80;;
705;SDS011;21234;48.690;9.016;2022-07-23T07:26:24;7.00;;;6.40;;
705;SDS011;21234;48.690;9.016;2022-07-23T07:28:51;7.27;;;5.97;;
705;SDS011;21234;48.690;9.016;2022-07-23T07:31:17;6.77;;;6.27;;
705;SDS011;21234;48.690;9.016;2022-07-23T07:33:44;8.47;;;7.43;;
705;SDS011;21234;48.690;9.016;2022-07-23T07:36:11;8.07;;;7.30;;
705;SDS011;21234;48.690;9.016;2022-07-23T07:38:38;7.20;;;6.60;;
705;SDS011;21234;48.690;9.016;2022-07-23T07:41:07;6.90;;;6.30;;
705;SDS011;21234;48.690;9.016;2022-07-23T07:43:35;7.50;;;6.80;;
705;SDS011;21234;48.690;9.016;2022-07-23T07:46:02;6.00;;;5.50;;
705;SDS011;21234;48.690;9.016;2022-07-23T07:48:30;6.77;;;6.07;;
705;SDS011;21234;48.690;9.016;2022-07-23T07:50:57;6.60;;;6.10;;
705;SDS011;21234;48.690;9.016;2022-07-23T07:53:24;6.30;;;5.73;;
705;SDS011;21234;48.690;9.016;2022-07-23T07:55:51;7.10;;;6.50;;
705;SDS011;21234;48.690;9.016;2022-07-23T07:58:19;6.90;;;6.40;;
705;SDS011;21234;48.690;9.016;2022-07-23T08:00:46;6.63;;;6.13;;
705;SDS011;21234;48.690;9.016;2022-07-23T08:03:14;6.60;;;6.10;;
705;SDS011;21234;48.690;9.016;2022-07-23T08:05:41;6.40;;;5.80;;
705;SDS011;21234;48.690;9.016;2022-07-23T08:08:08;6.40;;;5.90;;
705;SDS011;21234;48.690;9.016;2022-07-23T08:10:42;7.07;;;6.43;;
705;SDS011;21234;48.690;9.016;2022-07-23T08:13:11;6.40;;;5.70;;
705;SDS011;21234;48.690;9.016;2022-07-23T08:15:44;6.33;;;5.80;;
705;SDS011;21234;48.690;9.016;2022-07-23T08:18:18;6.00;;;5.50;;
705;SDS011;21234;48.690;9.016;2022-07-23T08:20:46;7.27;;;6.53;;
705;SDS011;21234;48.690;9.016;2022-07-23T08:23:16;6.57;;;6.03;;
705;SDS011;21234;48.690;9.016;2022-07-23T08:25:45;6.27;;;5.77;;
705;SDS011;21234;48.690;9.016;2022-07-23T08:28:13;6.03;;;5.43;;
705;SDS011;21234;48.690;9.016;2022-07-23T08:30:47;7.10;;;6.40;;
705;SDS011;21234;48.690;9.016;2022-07-23T08:33:20;7.70;;;6.90;;
705;SDS011;21234;48.690;9.016;2022-07-23T08:35:48;6.33;;;5.73;;
705;SDS011;21234;48.690;9.016;2022-07-23T08:38:19;8.93;;;6.50;;
705;SDS011;21234;48.690;9.016;2022-07-23T08:40:49;6.10;;;5.60;;
705;SDS011;21234;48.690;9.016;2022-07-23T08:43:19;6.60;;;5.80;;
705;SDS011;21234;48.690;9.016;2022-07-23T08:45:50;7.07;;;6.47;;
705;SDS011;21234;48.690;9.016;2022-07-23T08:48:19;6.30;;;5.80;;
705;SDS011;21234;48.690;9.016;2022-07-23T08:50:51;7.20;;;6.60;;
705;SDS011;21234;48.690;9.016;2022-07-23T08:53:20;7.50;;;6.90;;
705;SDS011;21234;48.690;9.016;2022-07-23T08:55:49;7.77;;;7.07;;
705;SDS011;21234;48.690;9.016;2022-07-23T08:58:18;7.00;;;6.30;;
705;SDS011;21234;48.690;9.016;2022-07-23T09:00:45;7.30;;;6.70;;
705;SDS011;21234;48.690;9.016;2022-07-23T09:03:15;6.67;;;6.07;;
705;SDS011;21234;48.690;9.016;2022-07-23T09:05:43;6.40;;;5.83;;
705;SDS011;21234;48.690;9.016;2022-07-23T09:08:11;6.20;;;5.70;;
705;SDS011;21234;48.690;9.016;2022-07-23T09:10:46;6.80;;;6.20;;
705;SDS011;21234;48.690;9.016;2022-07-23T09:13:27;5.47;;;5.07;;
705;SDS011;21234;48.690;9.016;2022-07-23T09:15:59;7.00;;;6.40;;
705;SDS011;21234;48.690;9.016;2022-07-23T09:18:30;6.33;;;5.73;;
705;SDS011;21234;48.690;9.016;2022-07-23T09:23:50;6.63;;;5.87;;
705;SDS011;21234;48.690;9.016;2022-07-23T09:26:21;6.40;;;5.90;;
705;SDS011;21234;48.690;9.016;2022-07-23T09:28:56;7.17;;;6.47;;
705;SDS011;21234;48.690;9.016;2022-07-23T09:31:25;7.03;;;6.53;;
705;SDS011;21234;48.690;9.016;2022-07-23T09:34:07;7.70;;;7.00;;
705;SDS011;21234;48.690;9.016;2022-07-23T09:36:35;7.60;;;6.70;;
705;SDS011;21234;48.690;9.016;2022-07-23T09:39:02;7.10;;;6.50;;
705;SDS011;21234;48.690;9.016;2022-07-23T09:41:33;6.77;;;6.20;;
705;SDS011;21234;48.690;9.016;2022-07-23T09:44:07;7.43;;;6.80;;
705;SDS011;21234;48.690;9.016;2022-07-23T09:46:35;6.93;;;6.33;;
705;SDS011;21234;48.690;9.016;2022-07-23T09:49:11;7.47;;;6.87;;
705;SDS011;21234;48.690;9.016;2022-07-23T09:51:49;8.00;;;7.30;;
705;SDS011;21234;48.690;9.016;2022-07-23T09:54:25;8.83;;;8.03;;
705;SDS011;21234;48.690;9.016;2022-07-23T09:56:56;8.77;;;7.97;;
705;SDS011;21234;48.690;9.016;2022-07-23T09:59:25;7.60;;;7.00;;
705;SDS011;21234;48.690;9.016;2022-07-23T10:01:55;7.80;;;7.07;;
705;SDS011;21234;48.690;9.016;2022-07-23T10:04:27;7.37;;;6.60;;
705;SDS011;21234;48.690;9.016;2022-07-23T10:06:55;8.90;;;8.00;;
705;SDS011;21234;48.690;9.016;2022-07-23T10:09:24;7.60;;;6.90;;
705;SDS011;21234;48.690;9.016;2022-07-23T10:11:53;7.87;;;7.27;;
705;SDS011;21234;48.690;9.016;2022-07-23T10:14:25;7.67;;;7.07;;
705;SDS011;21234;48.690;9.016;2022-07-23T10:16:55;9.10;;;7.03;;
705;SDS011;21234;48.690;9.016;2022-07-23T10:19:22;7.03;;;6.43;;
705;SDS011;21234;48.690;9.016;2022-07-23T10:21:52;7.20;;;6.60;;
705;SDS011;21234;48.690;9.016;2022-07-23T10:24:25;7.60;;;7.00;;
705;SDS011;21234;48.690;9.016;2022-07-23T10:27:00;7.47;;;6.77;;
705;SDS011;21234;48.690;9.016;2022-07-23T10:29:47;6.97;;;6.37;;
705;SDS011;21234;48.690;9.016;2022-07-23T10:32:21;11.73;;;10.83;;
705;SDS011;21234;48.690;9.016;2022-07-23T10:35:03;6.53;;;5.80;;
705;SDS011;21234;48.690;9.016;2022-07-23T10:37:40;7.17;;;6.50;;
705;SDS011;21234;48.690;9.016;2022-07-23T10:40:11;8.40;;;7.60;;
705;SDS011;21234;48.690;9.016;2022-07-23T10:42:41;6.80;;;6.20;;
705;SDS011;21234;48.690;9.016;2022-07-23T10:45:27;8.47;;;6.30;;
705;SDS011;21234;48.690;9.016;2022-07-23T10:47:56;7.60;;;7.00;;
705;SDS011;21234;48.690;9.016;2022-07-23T10:50:38;6.97;;;6.37;;
705;SDS011;21234;48.690;9.016;2022-07-23T10:53:14;6.80;;;6.10;;
705;SDS011;21234;48.690;9.016;2022-07-23T10:55:49;6.50;;;5.90;;
705;SDS011;21234;48.690;9.016;2022-07-23T10:58:18;7.27;;;6.67;;
705;SDS011;21234;48.690;9.016;2022-07-23T11:00:49;6.80;;;6.30;;
705;SDS011;21234;48.690;9.016;2022-07-23T11:03:32;6.70;;;6.00;;
705;SDS011;21234;48.690;9.016;2022-07-23T11:06:03;7.37;;;6.73;;
705;SDS011;21234;48.690;9.016;2022-07-23T11:08:32;7.03;;;6.33;;
705;SDS011;21234;48.690;9.016;2022-07-23T11:11:09;6.90;;;6.20;;
705;SDS011;21234;48.690;9.016;2022-07-23T11:13:38;7.47;;;6.87;;
705;SDS011;21234;48.690;9.016;2022-07-23T11:16:17;6.23;;;5.73;;
705;SDS011;21234;48.690;9.016;2022-07-23T11:21:41;6.90;;;6.30;;
705;SDS011;21234;48.690;9.016;2022-07-23T11:24:11;7.53;;;6.70;;
705;SDS011;21234;48.690;9.016;2022-07-23T11:26:46;7.30;;;6.70;;
705;SDS011;21234;48.690;9.016;2022-07-23T11:32:05;6.87;;;6.27;;
705;SDS011;21234;48.690;9.016;2022-07-23T11:34:33;7.17;;;6.47;;
705;SDS011;21234;48.690;9.016;2022-07-23T11:37:01;8.60;;;6.23;;
705;SDS011;21234;48.690;9.016;2022-07-23T11:39:31;7.77;;;7.03;;
705;SDS011;21234;48.690;9.016;2022-07-23T11:42:02;6.60;;;5.97;;
705;SDS011;21234;48.690;9.016;2022-07-23T11:44:31;6.80;;;6.20;;
705;SDS011;21234;48.690;9.016;2022-07-23T11:47:00;6.60;;;6.00;;
705;SDS011;21234;48.690;9.016;2022-07-23T11:49:28;8.00;;;7.23;;
705;SDS011;21234;48.690;9.016;2022-07-23T11:52:04;7.00;;;6.40;;
705;SDS011;21234;48.690;9.016;2022-07-23T11:54:34;7.73;;;7.13;;
705;SDS011;21234;48.690;9.016;2022-07-23T11:57:02;7.23;;;6.50;;
705;SDS011;21234;48.690;9.016;2022-07-23T11:59:30;7.00;;;6.40;;
705;SDS011;21234;48.690;9.016;2022-07-23T12:01:59;6.60;;;6.10;;
705;SDS011;21234;48.690;9.016;2022-07-23T12:04:36;7.47;;;6.87;;
705;SDS011;21234;48.690;9.016;2022-07-23T12:07:03;7.63;;;6.93;;
705;SDS011;21234;48.690;9.016;2022-07-23T12:09:30;6.97;;;6.37;;
705;SDS011;21234;48.690;9.016;2022-07-23T12:11:58;7.40;;;6.70;;
705;SDS011;21234;48.690;9.016;2022-07-23T12:14:27;7.10;;;6.40;;
705;SDS011;21234;48.690;9.016;2022-07-23T12:17:09;7.90;;;7.20;;
705;SDS011;21234;48.690;9.016;2022-07-23T12:19:36;6.70;;;6.20;;
705;SDS011;21234;48.690;9.016;2022-07-23T12:22:03;6.73;;;6.13;;
705;SDS011;21234;48.690;9.016;2022-07-23T12:24:30;7.37;;;6.67;;
705;SDS011;21234;48.690;9.016;2022-07-23T12:27:10;6.93;;;6.33;;
705;SDS011;21234;48.690;9.016;2022-07-23T12:29:39;7.13;;;6.43;;
705;SDS011;21234;48.690;9.016;2022-07-23T12:32:16;7.10;;;6.40;;
705;SDS011;21234;48.690;9.016;2022-07-23T12:34:48;8.03;;;7.33;;
705;SDS011;21234;48.690;9.016;2022-07-23T12:37:29;6.57;;;6.07;;
705;SDS011;21234;48.690;9.016;2022-07-23T12:39:57;8.07;;;7.37;;
705;SDS011;21234;48.690;9.016;2022-07-23T12:42:25;7.60;;;7.00;;
705;SDS011;21234;48.690;9.016;2022-07-23T12:45:08;6.93;;;6.33;;
705;SDS011;21234;48.690;9.016;2022-07-23T12:47:56;7.90;;;7.30;;
705;SDS011;21234;48.690;9.016;2022-07-23T12:50:32;6.90;;;6.30;;
705;SDS011;21234;48.690;9.016;2022-07-23T12:53:11;7.83;;;7.23;;
705;SDS011;21234;48.690;9.016;2022-07-23T12:55:41;9.47;;;8.67;;
705;SDS011;21234;48.690;9.016;2022-07-23T12:58:12;7.70;;;7.00;;
705;SDS011;21234;48.690;9.016;2022-07-23T13:00:54;8.97;;;8.17;;
705;SDS011;21234;48.690;9.016;2022-07-23T13:03:24;7.73;;;7.13;;
705;SDS011;21234;48.690;9.016;2022-07-23T13:05:51;7.50;;;6.80;;
705;SDS011;21234;48.690;9.016;2022-07-23T13:08:18;7.40;;;6.77;;
705;SDS011;21234;48.690;9.016;2022-07-23T13:10:45;7.60;;;6.50;;
705;SDS011;21234;48.690;9.016;2022-07-23T13:13:15;7.43;;;6.83;;
705;SDS011;21234;48.690;9.016;2022-07-23T13:15:42;8.53;;;7.83;;
705;SDS011;21234;48.690;9.016;2022-07-23T13:18:09;7.83;;;7.13;;
705;SDS011;21234;48.690;9.016;2022-07-23T13:20:36;7.27;;;6.57;;
705;SDS011;21234;48.690;9.016;2022-07-23T13:23:04;8.10;;;7.40;;
705;SDS011;21234;48.690;9.016;2022-07-23T13:25:31;8.53;;;7.77;;
705;SDS011;21234;48.690;9.016;2022-07-23T13:27:57;7.37;;;6.73;;
705;SDS011;21234;48.690;9.016;2022-07-23T13:30:25;8.03;;;7.33;;
705;SDS011;21234;48.690;9.016;2022-07-23T13:32:52;8.20;;;7.40;;
705;SDS011;21234;48.690;9.016;2022-07-23T13:35:19;8.50;;;7.70;;
705;SDS011;21234;48.690;9.016;2022-07-23T13:37:46;7.67;;;6.90;;
705;SDS011;21234;48.690;9.016;2022-07-23T13:40:12;13.40;;;7.70;;
705;SDS011;21234;48.690;9.016;2022-07-23T13:42:39;7.57;;;6.97;;
705;SDS011;21234;48.690;9.016;2022-07-23T13:45:06;8.60;;;7.80;;
705;SDS011;21234;48.690;9.016;2022-07-23T13:47:34;7.90;;;6.83;;
705;SDS011;21234;48.690;9.016;2022-07-23T13:50:01;7.67;;;6.97;;
705;SDS011;21234;48.690;9.016;2022-07-23T13:52:28;8.27;;;7.57;;
705;SDS011;21234;48.690;9.016;2022-07-23T13:54:55;8.27;;;7.57;;
705;SDS011;21234;48.690;9.016;2022-07-23T13:57:22;7.70;;;7.00;;
705;SDS011;21234;48.690;9.016;2022-07-23T13:59:49;8.30;;;7.50;;
705;SDS011;21234;48.690;9.016;2022-07-23T14:02:16;8.77;;;7.97;;
705;SDS011;21234;48.690;9.016;2022-07-23T14:04:45;7.77;;;7.17;;
705;SDS011;21234;48.690;9.016;2022-07-23T14:07:11;7.93;;;7.23;;
705;SDS011;21234;48.690;9.016;2022-07-23T14:09:38;8.00;;;7.27;;
705;SDS011;21234;48.690;9.016;2022-07-23T14:12:05;8.67;;;7.53;;
705;SDS011;21234;48.690;9.016;2022-07-23T14:14:33;8.40;;;7.70;;
705;SDS011;21234;48.690;9.016;2022-07-23T14:17:00;7.47;;;6.73;;
705;SDS011;21234;48.690;9.016;2022-07-23T14:19:27;8.53;;;7.93;;
705;SDS011;21234;48.690;9.016;2022-07-23T14:21:56;7.37;;;6.77;;
705;SDS011;21234;48.690;9.016;2022-07-23T14:24:22;7.27;;;6.63;;
705;SDS011;21234;48.690;9.016;2022-07-23T14:26:49;7.57;;;6.77;;
705;SDS011;21234;48.690;9.016;2022-07-23T14:29:16;8.23;;;7.60;;
705;SDS011;21234;48.690;9.016;2022-07-23T14:31:42;8.10;;;7.50;;
705;SDS011;21234;48.690;9.016;2022-07-23T14:34:09;8.23;;;7.20;;
705;SDS011;21234;48.690;9.016;2022-07-23T14:36:36;7.93;;;7.23;;
705;SDS011;21234;48.690;9.016;2022-07-23T14:39:05;8.03;;;7.33;;
705;SDS011;21234;48.690;9.016;2022-07-23T14:41:33;7.57;;;6.97;;
705;SDS011;21234;48.690;9.016;2022-07-23T14:44:00;7.67;;;7.00;;
705;SDS011;21234;48.690;9.016;2022-07-23T14:46:27;8.77;;;7.97;;
705;SDS011;21234;48.690;9.016;2022-07-23T14:48:54;7.57;;;6.87;;
705;SDS011;21234;48.690;9.016;2022-07-23T14:51:21;9.20;;;8.50;;
705;SDS011;21234;48.690;9.016;2022-07-23T14:53:48;8.50;;;7.70;;
705;SDS011;21234;48.690;9.016;2022-07-23T14:56:16;8.80;;;7.93;;
705;SDS011;21234;48.690;9.016;2022-07-23T14:58:43;9.10;;;8.20;;
705;SDS011;21234;48.690;9.016;2022-07-23T15:01:11;8.90;;;8.17;;
705;SDS011;21234;48.690;9.016;2022-07-23T15:03:38;7.67;;;6.97;;
705;SDS011;21234;48.690;9.016;2022-07-23T15:06:05;7.20;;;6.60;;
705;SDS011;21234;48.690;9.016;2022-07-23T15:08:32;7.20;;;6.50;;
705;SDS011;21234;48.690;9.016;2022-07-23T15:10:59;7.50;;;6.90;;
705;SDS011;21234;48.690;9.016;2022-07-23T15:13:27;7.60;;;6.90;;
705;SDS011;21234;48.690;9.016;2022-07-23T15:15:54;8.20;;;7.50;;
705;SDS011;21234;48.690;9.016;2022-07-23T15:18:21;7.93;;;7.23;;
705;SDS011;21234;48.690;9.016;2022-07-23T15:20:48;7.13;;;6.53;;
705;SDS011;21234;48.690;9.016;2022-07-23T15:23:14;8.53;;;7.83;;
705;SDS011;21234;48.690;9.016;2022-07-23T15:25:41;7.80;;;7.03;;
705;SDS011;21234;48.690;9.016;2022-07-23T15:28:08;7.97;;;7.20;;
705;SDS011;21234;48.690;9.016;2022-07-23T15:30:36;7.57;;;6.93;;